Time;durP1;ratioP1;P1;durP2;ratioP2;P2;SDS_P1;SDS_P2;PMS_P1;PMS_P2;Temp;Humidity;BMP_temperature;BMP_pressure;BME280_temperature;BME280_humidity;BME280_pressure;Samples;Min_cycle;Max_cycle;Signal;HPM_P1;HPM_P2
2023/06/30 00:01:21;;;;;;;;;;;17.30;72.10;;;;;;4192808;28;19970;-83
2023/06/30 00:03:45;;;;;;;;;;;17.30;72.10;;;;;;4182993;28;19912;-84
2023/06/30 00:06:05;;;;;;;;;;;17.30;72.10;;;;;;4192353;28;19943;-83
2023/06/30 00:08:26;;;;;;;;;;;17.30;72.10;;;;;;4197388;28;19919;-83
2023/06/30 00:10:46;;;;;;;;;;;17.20;72.10;;;;;;4175554;28;19916;-83
2023/06/30 00:13:07;;;;;;;;;;;17.20;72.10;;;;;;4190164;28;19913;-83
2023/06/30 00:15:08;;;;;;;;;;;17.20;72.00;;;;;;4190537;28;19916;-84
2023/06/30 00:17:08;;;;;;;;;;;17.10;71.90;;;;;;4177025;28;19947;-83
2023/06/30 00:19:29;;;;;;;;;;;17.10;72.00;;;;;;4193255;28;19912;-83
2023/06/30 00:21:52;;;;;;;;;;;17.10;72.10;;;;;;4178783;28;19924;-82
2023/06/30 00:24:13;;;;;;;;;;;17.10;72.00;;;;;;4180095;28;19921;-84
2023/06/30 00:26:33;;;;;;;;;;;17.00;72.10;;;;;;4177255;28;19909;-83
2023/06/30 00:28:54;;;;;;;;;;;17.00;72.10;;;;;;4173984;28;19917;-83
2023/06/30 00:31:14;;;;;;;;;;;17.00;72.00;;;;;;4175796;28;20007;-82
2023/06/30 00:33:15;;;;;;;;;;;16.90;72.00;;;;;;4178311;28;20015;-83
2023/06/30 00:35:16;;;;;;;;;;;16.90;72.00;;;;;;4187938;28;19956;-82
2023/06/30 00:37:17;;;;;;;;;;;16.90;72.00;;;;;;4160734;28;20403;-83
2023/06/30 00:39:37;;;;;;;;;;;16.90;72.00;;;;;;4192789;28;19913;-83
2023/06/30 00:41:58;;;;;;;;;;;16.90;72.00;;;;;;4178123;28;19913;-83
2023/06/30 00:44:19;;;;;;;;;;;16.90;72.00;;;;;;4184172;28;20387;-83
2023/06/30 00:46:39;;;;;;;;;;;16.80;71.90;;;;;;4194849;28;19908;-83
2023/06/30 00:49:00;;;;;;;;;;;16.80;71.90;;;;;;4196256;28;19917;-82
2023/06/30 00:51:21;;;;;;;;;;;16.70;71.80;;;;;;4183023;28;19917;-82
2023/06/30 00:53:41;;;;;;;;;;;16.70;71.90;;;;;;4182325;28;19916;-83
2023/06/30 00:55:44;;;;;;;;;;;16.70;71.90;;;;;;4176120;28;20405;-84
2023/06/30 00:58:05;;;;;;;;;;;16.60;72.00;;;;;;4178691;28;20322;-83
2023/06/30 01:00:10;;;;;;;;;;;16.60;72.00;;;;;;4194521;28;19920;-82
2023/06/30 01:02:18;;;;;;;;;;;16.60;72.00;;;;;;4196736;28;19923;-83
2023/06/30 01:04:35;;;;;;;;;;;16.50;71.80;;;;;;4192641;28;19924;-83
2023/06/30 01:06:43;;;;;;;;;;;16.50;71.80;;;;;;4183530;28;19928;-83
2023/06/30 01:08:52;;;;;;;;;;;16.40;71.80;;;;;;4174881;28;20388;-83
2023/06/30 01:10:54;;;;;;;;;;;16.40;71.90;;;;;;4192996;28;19923;-84
2023/06/30 01:12:55;;;;;;;;;;;16.50;72.00;;;;;;4193853;28;19988;-85
2023/06/30 01:14:56;;;;;;;;;;;16.40;72.00;;;;;;4194858;28;20027;-82
2023/06/30 01:16:57;;;;;;;;;;;16.30;71.90;;;;;;4163224;28;19917;-84
2023/06/30 01:18:59;;;;;;;;;;;16.30;72.00;;;;;;4173701;28;19917;-83
2023/06/30 01:21:00;;;;;;;;;;;16.30;72.10;;;;;;4163362;28;19924;-84
2023/06/30 01:23:12;;;;;;;;;;;16.30;72.00;;;;;;4189427;28;19934;-82
2023/06/30 01:25:20;;;;;;;;;;;16.20;71.90;;;;;;4171634;28;20313;-82
2023/06/30 01:27:21;;;;;;;;;;;16.20;72.10;;;;;;4160371;28;19932;-82
2023/06/30 01:29:22;;;;;;;;;;;16.10;72.10;;;;;;4171461;28;19921;-84
2023/06/30 01:31:22;;;;;;;;;;;16.10;72.00;;;;;;4179635;28;20023;-83
2023/06/30 01:33:23;;;;;;;;;;;16.00;72.00;;;;;;4161653;28;19917;-82
2023/06/30 01:35:25;;;;;;;;;;;16.10;72.20;;;;;;4172724;28;19951;-83
2023/06/30 01:37:25;;;;;;;;;;;15.90;72.20;;;;;;4156765;28;20007;-82
2023/06/30 01:39:26;;;;;;;;;;;15.90;72.10;;;;;;4197090;28;19959;-84
2023/06/30 01:41:26;;;;;;;;;;;15.90;72.10;;;;;;4176636;28;19912;-83
2023/06/30 01:43:28;;;;;;;;;;;15.90;72.20;;;;;;4159756;28;20003;-82
2023/06/30 01:45:29;;;;;;;;;;;15.80;72.20;;;;;;4173981;28;19919;-83
2023/06/30 01:47:30;;;;;;;;;;;15.80;72.10;;;;;;4173909;28;20432;-82
2023/06/30 01:49:32;;;;;;;;;;;15.70;72.20;;;;;;4161878;28;19924;-83
2023/06/30 01:51:32;;;;;;;;;;;15.70;72.30;;;;;;4163184;28;19936;-83
2023/06/30 01:53:33;;;;;;;;;;;15.70;72.40;;;;;;4157064;28;20023;-83
2023/06/30 01:55:37;;;;;;;;;;;15.70;72.30;;;;;;4195558;28;19948;-82
2023/06/30 01:57:38;;;;;;;;;;;15.70;72.40;;;;;;4158907;28;19913;-82
2023/06/30 01:59:40;;;;;;;;;;;15.60;72.40;;;;;;4171720;28;19960;-83
2023/06/30 02:01:40;;;;;;;;;;;15.60;72.40;;;;;;4194187;28;19916;-82
2023/06/30 02:04:01;;;;;;;;;;;15.60;72.40;;;;;;4175355;28;19931;-82
2023/06/30 02:06:03;;;;;;;;;;;15.60;72.50;;;;;;4158677;28;19909;-82
2023/06/30 02:08:04;;;;;;;;;;;15.60;72.50;;;;;;4160564;28;19975;-82
2023/06/30 02:10:09;;;;;;;;;;;15.50;72.50;;;;;;4157165;28;20017;-83
2023/06/30 02:12:11;;;;;;;;;;;15.50;72.50;;;;;;4173285;28;19908;-83
2023/06/30 02:14:31;;;;;;;;;;;15.50;72.50;;;;;;4191577;28;19912;-83
2023/06/30 02:16:32;;;;;;;;;;;15.50;72.50;;;;;;4175254;28;19948;-82
2023/06/30 02:18:55;;;;;;;;;;;15.40;72.60;;;;;;4177869;28;19921;-83
2023/06/30 02:21:15;;;;;;;;;;;15.40;72.60;;;;;;4192039;28;19928;-82
2023/06/30 02:23:36;;;;;;;;;;;15.40;72.70;;;;;;4192687;28;20015;-82
2023/06/30 02:25:57;;;;;;;;;;;15.30;72.60;;;;;;4187658;28;20458;-84
2023/06/30 02:28:18;;;;;;;;;;;15.30;73.50;;;;;;4180200;28;19917;-82
2023/06/30 02:30:39;;;;;;;;;;;15.30;72.70;;;;;;4190287;28;20428;-84
2023/06/30 02:32:59;;;;;;;;;;;15.30;72.80;;;;;;4186031;28;19945;-84
2023/06/30 02:35:20;;;;;;;;;;;15.20;72.80;;;;;;4194355;28;20391;-82
2023/06/30 02:37:22;;;;;;;;;;;15.20;72.90;;;;;;4180460;28;20023;-82
2023/06/30 02:39:45;;;;;;;;;;;15.20;72.90;;;;;;4199174;28;20402;-83
2023/06/30 02:42:06;;;;;;;;;;;15.10;72.90;;;;;;4183991;28;20414;-83
2023/06/30 02:44:22;;;;;;;;;;;15.10;72.90;;;;;;4168466;28;20361;-82
2023/06/30 02:46:43;;;;;;;;;;;15.10;72.90;;;;;;4181860;28;20415;-82
2023/06/30 02:49:03;;;;;;;;;;;15.10;72.90;;;;;;4196376;28;20004;-82
2023/06/30 02:51:24;;;;;;;;;;;15.10;72.90;;;;;;4181819;28;20643;-84
2023/06/30 02:53:44;;;;;;;;;;;15.00;73.00;;;;;;4182583;28;20431;-82
2023/06/30 02:56:05;;;;;;;;;;;15.00;73.30;;;;;;4183974;28;19913;-83
2023/06/30 02:58:26;;;;;;;;;;;15.10;73.20;;;;;;4177790;28;20396;-82
2023/06/30 03:00:46;;;;;;;;;;;15.00;73.20;;;;;;4191860;28;20376;-83
2023/06/30 03:03:09;;;;;;;;;;;15.00;73.20;;;;;;4198919;28;19912;-82
2023/06/30 03:05:36;;;;;;;;;;;15.00;73.20;;;;;;4196166;28;20371;-82
2023/06/30 03:07:57;;;;;;;;;;;14.90;73.20;;;;;;4182168;28;19913;-82
2023/06/30 03:10:17;;;;;;;;;;;14.90;73.20;;;;;;4175619;28;20624;-81
2023/06/30 03:12:41;;;;;;;;;;;14.90;73.30;;;;;;4183974;28;20407;-82
2023/06/30 03:15:01;;;;;;;;;;;14.90;73.30;;;;;;4183143;28;20396;-83
2023/06/30 03:17:08;;;;;;;;;;;14.90;73.40;;;;;;4196504;28;19924;-82
2023/06/30 03:19:09;;;;;;;;;;;14.90;73.30;;;;;;4180817;28;20308;-81
2023/06/30 03:21:10;;;;;;;;;;;15.00;73.40;;;;;;4189960;28;19909;-83
2023/06/30 03:23:12;;;;;;;;;;;14.90;74.00;;;;;;4196192;28;19912;-82
2023/06/30 03:25:13;;;;;;;;;;;14.90;73.20;;;;;;4157722;28;19909;-83
2023/06/30 03:27:14;;;;;;;;;;;14.90;73.20;;;;;;4182061;28;20039;-81
2023/06/30 03:29:14;;;;;;;;;;;14.80;73.20;;;;;;4180516;28;20166;-81
2023/06/30 03:31:18;;;;;;;;;;;14.80;73.20;;;;;;4162697;28;19918;-81
2023/06/30 03:33:21;;;;;;;;;;;14.80;73.20;;;;;;4194821;28;20271;-81
2023/06/30 03:35:22;;;;;;;;;;;14.80;73.30;;;;;;4182373;28;19917;-82
2023/06/30 03:37:22;;;;;;;;;;;14.80;73.40;;;;;;4183050;28;19944;-82
2023/06/30 03:39:23;;;;;;;;;;;14.80;73.50;;;;;;4159407;28;19928;-83
2023/06/30 03:41:24;;;;;;;;;;;14.80;73.50;;;;;;4176191;28;20197;-82
2023/06/30 03:43:24;;;;;;;;;;;14.90;73.60;;;;;;4161829;28;19917;-81
2023/06/30 03:45:25;;;;;;;;;;;14.90;73.80;;;;;;4177908;28;19920;-82
2023/06/30 03:47:25;;;;;;;;;;;14.90;73.90;;;;;;4195371;28;19923;-82
2023/06/30 03:49:26;;;;;;;;;;;15.00;74.10;;;;;;4162494;28;19931;-81
2023/06/30 03:51:27;;;;;;;;;;;14.90;74.10;;;;;;4167942;28;19925;-84
2023/06/30 03:53:28;;;;;;;;;;;14.90;74.00;;;;;;4175880;28;19913;-82
2023/06/30 03:55:28;;;;;;;;;;;14.90;74.00;;;;;;4178285;28;19928;-82
2023/06/30 03:57:29;;;;;;;;;;;15.00;74.00;;;;;;4179302;28;19919;-82
2023/06/30 03:59:30;;;;;;;;;;;15.00;74.10;;;;;;4175632;28;20448;-83
2023/06/30 04:01:33;;;;;;;;;;;15.00;74.10;;;;;;4194886;28;19935;-82
2023/06/30 04:03:34;;;;;;;;;;;15.00;74.10;;;;;;4189098;28;20596;-82
2023/06/30 04:05:35;;;;;;;;;;;15.00;74.00;;;;;;4179828;28;19916;-84
2023/06/30 04:07:35;;;;;;;;;;;15.10;74.10;;;;;;4163427;28;20071;-84
2023/06/30 04:09:36;;;;;;;;;;;15.10;74.10;;;;;;4176664;28;20387;-82
2023/06/30 04:11:36;;;;;;;;;;;15.10;74.10;;;;;;4181964;28;19912;-83
2023/06/30 04:13:37;;;;;;;;;;;15.10;74.00;;;;;;4174906;28;19927;-82
2023/06/30 04:15:37;;;;;;;;;;;15.10;74.00;;;;;;4160154;28;19912;-82
2023/06/30 04:17:38;;;;;;;;;;;15.10;74.10;;;;;;4157892;28;19921;-82
2023/06/30 04:19:39;;;;;;;;;;;15.20;74.20;;;;;;4178280;28;19978;-83
2023/06/30 04:21:39;;;;;;;;;;;15.20;74.10;;;;;;4161624;28;19912;-82
2023/06/30 04:23:40;;;;;;;;;;;15.30;74.00;;;;;;4171112;28;19928;-82
2023/06/30 04:25:40;;;;;;;;;;;15.20;73.90;;;;;;4174663;28;19932;-82
2023/06/30 04:27:41;;;;;;;;;;;15.30;74.00;;;;;;4190245;28;20003;-85
2023/06/30 04:29:42;;;;;;;;;;;15.30;74.20;;;;;;4162833;28;19916;-83
2023/06/30 04:31:44;;;;;;;;;;;15.30;74.20;;;;;;4164481;28;19928;-82
2023/06/30 04:33:44;;;;;;;;;;;15.30;74.10;;;;;;4178682;28;19913;-82
2023/06/30 04:35:45;;;;;;;;;;;15.30;74.10;;;;;;4193574;28;19921;-83
2023/06/30 04:37:45;;;;;;;;;;;15.30;74.10;;;;;;4176888;28;19975;-83
2023/06/30 04:39:47;;;;;;;;;;;15.40;74.20;;;;;;4196509;28;19925;-83
2023/06/30 04:41:48;;;;;;;;;;;15.40;74.00;;;;;;4178896;28;19923;-83
2023/06/30 04:43:49;;;;;;;;;;;15.40;74.10;;;;;;4173637;28;19909;-82
2023/06/30 04:45:49;;;;;;;;;;;15.40;74.20;;;;;;4194053;28;19920;-83
2023/06/30 04:47:50;;;;;;;;;;;15.50;74.40;;;;;;4161300;28;19917;-82
2023/06/30 04:49:50;;;;;;;;;;;15.40;74.00;;;;;;4194174;28;19916;-83
2023/06/30 04:51:51;;;;;;;;;;;15.40;73.90;;;;;;4179726;28;19936;-82
2023/06/30 04:53:53;;;;;;;;;;;15.40;73.90;;;;;;4179615;28;20339;-82
2023/06/30 04:55:54;;;;;;;;;;;15.50;74.10;;;;;;4162895;28;19917;-82
2023/06/30 04:57:56;;;;;;;;;;;15.50;74.20;;;;;;4175142;28;19912;-82
2023/06/30 04:59:56;;;;;;;;;;;15.60;73.90;;;;;;4174299;28;19920;-82
2023/06/30 05:01:57;;;;;;;;;;;15.60;74.00;;;;;;4177500;28;19995;-82
2023/06/30 05:03:58;;;;;;;;;;;15.70;74.10;;;;;;4162936;28;19913;-82
2023/06/30 05:05:59;;;;;;;;;;;15.60;74.10;;;;;;4191607;28;19982;-82
2023/06/30 05:08:00;;;;;;;;;;;15.60;73.90;;;;;;4177806;28;19963;-83
2023/06/30 05:10:01;;;;;;;;;;;15.70;74.00;;;;;;4191819;28;19968;-83
2023/06/30 05:12:02;;;;;;;;;;;15.70;74.10;;;;;;4174708;28;19913;-82
2023/06/30 05:14:03;;;;;;;;;;;15.70;74.00;;;;;;4192277;28;19962;-83
2023/06/30 05:16:04;;;;;;;;;;;15.70;73.80;;;;;;4191557;28;19912;-83
2023/06/30 05:18:05;;;;;;;;;;;15.70;73.90;;;;;;4161325;28;19967;-82
2023/06/30 05:20:08;;;;;;;;;;;15.80;74.00;;;;;;4164905;28;19917;-83
2023/06/30 05:22:08;;;;;;;;;;;15.80;73.90;;;;;;4180675;28;19925;-82
2023/06/30 05:24:09;;;;;;;;;;;15.80;73.80;;;;;;4173801;28;19955;-85
2023/06/30 05:26:10;;;;;;;;;;;15.80;73.70;;;;;;4199244;28;19963;-84
2023/06/30 05:28:31;;;;;;;;;;;15.90;73.20;;;;;;4211017;28;19947;-83
2023/06/30 05:30:52;;;;;;;;;;;15.90;73.00;;;;;;4212732;28;19924;-84
2023/06/30 05:33:12;;;;;;;;;;;15.90;72.90;;;;;;4199479;28;19904;-84
2023/06/30 05:35:33;;;;;;;;;;;15.90;72.80;;;;;;4196238;28;19912;-84
2023/06/30 05:37:55;;;;;;;;;;;15.90;72.70;;;;;;4183612;28;19927;-84
2023/06/30 05:40:16;;;;;;;;;;;15.90;72.50;;;;;;4199880;28;19971;-83
2023/06/30 05:42:36;;;;;;;;;;;15.90;72.20;;;;;;4193662;28;19939;-84
2023/06/30 05:44:57;;;;;;;;;;;16.00;71.90;;;;;;4187422;28;19920;-83
2023/06/30 05:47:18;;;;;;;;;;;15.90;71.80;;;;;;4183027;28;19913;-83
2023/06/30 05:49:38;;;;;;;;;;;15.90;71.70;;;;;;4184985;28;19912;-83
2023/06/30 05:51:39;;;;;;;;;;;15.90;71.60;;;;;;4195814;28;20009;-84
2023/06/30 05:53:40;;;;;;;;;;;15.90;71.60;;;;;;4170723;28;20386;-83
2023/06/30 05:55:40;;;;;;;;;;;15.90;71.60;;;;;;4194457;28;19931;-84
2023/06/30 05:57:41;;;;;;;;;;;16.10;71.70;;;;;;4166507;28;19917;-83
2023/06/30 05:59:41;;;;;;;;;;;16.00;71.60;;;;;;4180516;28;20067;-83
2023/06/30 06:01:42;;;;;;;;;;;16.00;71.50;;;;;;4193103;28;20497;-83
2023/06/30 06:03:43;;;;;;;;;;;16.00;71.40;;;;;;4166649;28;19913;-84
2023/06/30 06:05:44;;;;;;;;;;;16.00;71.40;;;;;;4182748;28;21213;-84
2023/06/30 06:07:44;;;;;;;;;;;16.00;71.30;;;;;;4177658;28;19917;-83
2023/06/30 06:09:45;;;;;;;;;;;16.00;71.20;;;;;;4197203;28;19913;-84
2023/06/30 06:11:46;;;;;;;;;;;16.00;71.20;;;;;;4170265;28;19960;-84
2023/06/30 06:13:46;;;;;;;;;;;16.00;71.20;;;;;;4167199;28;20503;-83
2023/06/30 06:15:47;;;;;;;;;;;16.00;71.30;;;;;;4184457;28;19920;-83
2023/06/30 06:17:48;;;;;;;;;;;16.00;71.50;;;;;;4179520;28;20614;-83
2023/06/30 06:19:48;;;;;;;;;;;16.00;71.50;;;;;;4202040;28;19920;-83
2023/06/30 06:21:49;;;;;;;;;;;16.10;71.60;;;;;;4182868;28;19927;-83
2023/06/30 06:23:49;;;;;;;;;;;16.20;71.70;;;;;;4180185;28;19927;-84
2023/06/30 06:25:50;;;;;;;;;;;16.10;71.70;;;;;;4197622;28;20236;-84
2023/06/30 06:27:51;;;;;;;;;;;16.10;71.80;;;;;;4191815;28;19917;-84
2023/06/30 06:29:51;;;;;;;;;;;16.20;71.60;;;;;;4183550;28;19912;-84
2023/06/30 06:31:54;;;;;;;;;;;16.20;71.30;;;;;;4179374;28;20422;-84
2023/06/30 06:33:54;;;;;;;;;;;16.30;70.80;;;;;;4182100;28;19913;-83
2023/06/30 06:35:55;;;;;;;;;;;16.20;70.80;;;;;;4194076;28;19917;-84
2023/06/30 06:37:56;;;;;;;;;;;16.30;70.80;;;;;;4181250;28;19921;-83
2023/06/30 06:39:56;;;;;;;;;;;16.30;70.60;;;;;;4177488;28;19970;-84
2023/06/30 06:41:57;;;;;;;;;;;16.30;70.70;;;;;;4182745;28;19932;-83
2023/06/30 06:43:58;;;;;;;;;;;16.30;70.50;;;;;;4174362;28;19924;-84
2023/06/30 06:45:59;;;;;;;;;;;16.40;70.50;;;;;;4183115;28;19995;-83
2023/06/30 06:48:17;;;;;;;;;;;16.40;70.20;;;;;;4195409;28;19916;-84
2023/06/30 06:50:17;;;;;;;;;;;16.40;70.10;;;;;;4180597;28;20437;-83
2023/06/30 06:52:18;;;;;;;;;;;16.40;69.50;;;;;;4161172;28;19913;-83
2023/06/30 06:54:18;;;;;;;;;;;16.50;69.60;;;;;;4159049;28;21519;-83
2023/06/30 06:56:19;;;;;;;;;;;16.50;69.10;;;;;;4179284;28;19910;-84
2023/06/30 06:58:21;;;;;;;;;;;16.60;69.30;;;;;;4163575;28;20097;-83
2023/06/30 07:00:21;;;;;;;;;;;16.60;69.30;;;;;;4177295;28;19908;-84
2023/06/30 07:02:22;;;;;;;;;;;16.50;69.10;;;;;;4178612;28;19912;-83
2023/06/30 07:04:23;;;;;;;;;;;16.60;69.20;;;;;;4176575;28;19916;-84
2023/06/30 07:06:24;;;;;;;;;;;16.60;68.80;;;;;;4157400;28;19986;-84
2023/06/30 07:08:26;;;;;;;;;;;16.60;68.80;;;;;;4190535;28;19913;-84
2023/06/30 07:10:28;;;;;;;;;;;16.60;68.70;;;;;;4177158;28;19909;-84
2023/06/30 07:12:28;;;;;;;;;;;16.70;68.60;;;;;;4181518;28;20109;-84
2023/06/30 07:14:30;;;;;;;;;;;16.70;68.20;;;;;;4185615;28;19912;-83
2023/06/30 07:16:31;;;;;;;;;;;16.70;68.30;;;;;;4191047;28;19916;-83
2023/06/30 07:18:45;;;;;;;;;;;16.80;68.40;;;;;;4193794;28;19964;-83
2023/06/30 07:20:50;;;;;;;;;;;16.80;68.60;;;;;;4162093;28;19916;-83
2023/06/30 07:23:11;;;;;;;;;;;16.80;68.70;;;;;;4183696;28;19917;-84
2023/06/30 07:25:11;;;;;;;;;;;16.90;68.60;;;;;;4180187;28;20378;-85
2023/06/30 07:27:32;;;;;;;;;;;17.00;68.60;;;;;;4196997;28;19909;-83
2023/06/30 07:29:33;;;;;;;;;;;17.00;68.20;;;;;;4185069;28;19921;-83
2023/06/30 07:31:41;;;;;;;;;;;17.10;68.00;;;;;;4181490;28;19913;-84
2023/06/30 07:33:49;;;;;;;;;;;17.20;67.80;;;;;;4169902;28;19917;-84
2023/06/30 07:36:10;;;;;;;;;;;17.20;66.90;;;;;;4184218;28;19960;-84
2023/06/30 07:38:30;;;;;;;;;;;17.30;66.90;;;;;;4199328;28;19908;-84
2023/06/30 07:40:44;;;;;;;;;;;17.40;66.60;;;;;;4180295;28;19992;-84
2023/06/30 07:43:04;;;;;;;;;;;17.50;66.60;;;;;;4186872;28;20043;-84
2023/06/30 07:45:09;;;;;;;;;;;17.50;66.50;;;;;;4166867;28;19926;-84
2023/06/30 07:47:29;;;;;;;;;;;17.60;65.70;;;;;;4197388;28;19909;-84
2023/06/30 07:49:50;;;;;;;;;;;17.60;65.80;;;;;;4193681;28;19917;-84
2023/06/30 07:52:11;;;;;;;;;;;17.70;65.70;;;;;;4182476;28;19913;-84
2023/06/30 07:54:31;;;;;;;;;;;17.70;64.60;;;;;;4186639;28;19927;-84
2023/06/30 07:56:52;;;;;;;;;;;17.80;64.40;;;;;;4186100;28;19986;-83
2023/06/30 07:58:53;;;;;;;;;;;17.90;64.70;;;;;;4166368;28;20019;-85
2023/06/30 08:00:54;;;;;;;;;;;17.90;64.30;;;;;;4180998;28;19912;-83
2023/06/30 08:02:54;;;;;;;;;;;17.90;62.80;;;;;;4200076;28;19916;-83
2023/06/30 08:04:55;;;;;;;;;;;18.00;63.00;;;;;;4178377;28;19916;-85
2023/06/30 08:06:56;;;;;;;;;;;18.10;62.50;;;;;;4163979;28;19923;-84
2023/06/30 08:08:56;;;;;;;;;;;18.10;62.70;;;;;;4180559;28;20417;-84
2023/06/30 08:10:57;;;;;;;;;;;18.10;62.70;;;;;;4194855;28;19927;-85
2023/06/30 08:12:57;;;;;;;;;;;18.10;62.30;;;;;;4165448;28;19916;-84
2023/06/30 08:14:58;;;;;;;;;;;18.20;61.70;;;;;;4178101;28;19971;-84
2023/06/30 08:16:59;;;;;;;;;;;18.20;61.40;;;;;;4196415;28;19913;-85
2023/06/30 08:18:59;;;;;;;;;;;18.30;60.10;;;;;;4166296;28;20292;-84
2023/06/30 08:21:00;;;;;;;;;;;18.30;59.80;;;;;;4164548;28;20057;-84
2023/06/30 08:23:01;;;;;;;;;;;18.30;59.90;;;;;;4174807;28;20353;-83
2023/06/30 08:25:01;;;;;;;;;;;18.40;59.40;;;;;;4160082;28;19970;-84
2023/06/30 08:27:02;;;;;;;;;;;18.40;59.60;;;;;;4180058;28;20372;-84
2023/06/30 08:29:03;;;;;;;;;;;18.50;60.00;;;;;;4183007;28;19924;-85
2023/06/30 08:31:03;;;;;;;;;;;18.50;59.90;;;;;;4177814;28;19964;-84
2023/06/30 08:33:04;;;;;;;;;;;18.60;59.70;;;;;;4194671;28;19999;-84
2023/06/30 08:35:05;;;;;;;;;;;18.70;60.00;;;;;;4190785;28;20283;-84
2023/06/30 08:37:05;;;;;;;;;;;18.70;59.90;;;;;;4165936;28;19912;-84
2023/06/30 08:39:06;;;;;;;;;;;18.80;60.00;;;;;;4180185;28;19948;-84
2023/06/30 08:41:08;;;;;;;;;;;18.80;59.20;;;;;;4179670;28;20004;-84
2023/06/30 08:43:10;;;;;;;;;;;18.80;59.50;;;;;;4165239;28;19921;-83
2023/06/30 08:45:12;;;;;;;;;;;18.90;59.40;;;;;;4175196;28;19917;-85
2023/06/30 08:47:14;;;;;;;;;;;18.90;58.90;;;;;;4158135;28;19921;-84
2023/06/30 08:49:14;;;;;;;;;;;19.10;58.90;;;;;;4181247;28;19955;-84
2023/06/30 08:51:17;;;;;;;;;;;19.00;58.60;;;;;;4180227;28;19909;-84
2023/06/30 08:53:18;;;;;;;;;;;19.00;58.30;;;;;;4160899;28;20214;-84
2023/06/30 08:55:25;;;;;;;;;;;19.00;58.40;;;;;;4178214;28;19909;-84
2023/06/30 08:57:26;;;;;;;;;;;19.10;58.20;;;;;;4182595;28;20047;-83
2023/06/30 08:59:27;;;;;;;;;;;19.10;57.50;;;;;;4161013;28;20280;-83
2023/06/30 09:01:48;;;;;;;;;;;19.10;57.50;;;;;;4178048;28;19919;-85
2023/06/30 09:03:48;;;;;;;;;;;19.10;57.30;;;;;;4190966;28;20446;-84
2023/06/30 09:06:11;;;;;;;;;;;19.10;57.70;;;;;;4168383;28;19968;-85
2023/06/30 09:08:35;;;;;;;;;;;19.20;56.80;;;;;;4193861;28;19923;-85
2023/06/30 09:10:49;;;;;;;;;;;19.30;56.30;;;;;;4178732;28;19916;-86
2023/06/30 09:13:10;;;;;;;;;;;19.30;56.40;;;;;;4198190;28;19908;-83
2023/06/30 09:15:31;;;;;;;;;;;19.30;56.00;;;;;;4193166;28;19920;-84
2023/06/30 09:17:43;;;;;;;;;;;19.40;55.50;;;;;;4161736;28;19919;-84
2023/06/30 09:20:04;;;;;;;;;;;19.40;56.30;;;;;;4174743;28;19921;-84
2023/06/30 09:22:24;;;;;;;;;;;19.40;55.40;;;;;;4198023;28;19951;-84
2023/06/30 09:24:45;;;;;;;;;;;19.50;55.30;;;;;;4163698;28;19932;-84
2023/06/30 09:27:06;;;;;;;;;;;19.50;54.70;;;;;;4196318;28;19917;-85
2023/06/30 09:29:07;;;;;;;;;;;19.50;54.20;;;;;;4195138;28;20264;-84
2023/06/30 09:31:30;;;;;;;;;;;19.60;53.90;;;;;;4180429;28;20010;-84
2023/06/30 09:33:50;;;;;;;;;;;19.70;53.60;;;;;;4181478;28;19924;-84
2023/06/30 09:36:03;;;;;;;;;;;19.70;54.80;;;;;;4178961;28;19913;-84
2023/06/30 09:38:24;;;;;;;;;;;19.80;54.80;;;;;;4175959;28;19913;-84
2023/06/30 09:40:46;;;;;;;;;;;19.90;54.50;;;;;;4178793;28;19913;-84
2023/06/30 09:43:07;;;;;;;;;;;19.90;53.40;;;;;;4192448;28;19927;-85
2023/06/30 09:45:27;;;;;;;;;;;19.90;52.90;;;;;;4191958;28;19950;-85
2023/06/30 09:47:54;;;;;;;;;;;20.00;53.40;;;;;;4188907;28;19992;-85
2023/06/30 09:50:15;;;;;;;;;;;19.90;52.90;;;;;;4196320;28;19912;-84
2023/06/30 09:52:37;;;;;;;;;;;20.00;52.90;;;;;;4192237;28;19913;-83
2023/06/30 09:54:58;;;;;;;;;;;20.00;52.70;;;;;;4178055;28;19913;-85
2023/06/30 09:57:18;;;;;;;;;;;20.10;51.70;;;;;;4178207;28;19932;-86
2023/06/30 09:59:39;;;;;;;;;;;20.10;51.10;;;;;;4190218;28;19920;-84
2023/06/30 10:02:00;;;;;;;;;;;20.10;50.60;;;;;;4193512;28;19920;-84
2023/06/30 10:04:21;;;;;;;;;;;20.20;52.10;;;;;;4185244;28;19911;-84
2023/06/30 10:06:42;;;;;;;;;;;20.30;51.80;;;;;;4190448;28;19916;-85
2023/06/30 10:09:04;;;;;;;;;;;20.30;51.10;;;;;;4192231;28;19948;-84
2023/06/30 10:11:25;;;;;;;;;;;20.40;51.60;;;;;;4192197;28;19908;-84
2023/06/30 10:13:47;;;;;;;;;;;20.50;50.70;;;;;;4196816;28;19979;-85
2023/06/30 10:15:47;;;;;;;;;;;20.60;50.80;;;;;;4180937;28;19909;-84
2023/06/30 10:17:48;;;;;;;;;;;20.60;50.70;;;;;;4161028;28;19909;-84
2023/06/30 10:19:50;;;;;;;;;;;20.70;51.30;;;;;;4179047;28;19924;-84
2023/06/30 10:21:51;;;;;;;;;;;20.80;51.10;;;;;;4191352;28;19916;-85
2023/06/30 10:23:52;;;;;;;;;;;20.80;51.00;;;;;;4174363;28;20299;-85
2023/06/30 10:25:54;;;;;;;;;;;20.90;50.10;;;;;;4178208;28;19919;-85
2023/06/30 10:27:54;;;;;;;;;;;20.90;49.10;;;;;;4181042;28;20618;-85
2023/06/30 10:29:55;;;;;;;;;;;20.90;49.00;;;;;;4161790;28;19953;-84
2023/06/30 10:31:56;;;;;;;;;;;21.00;48.80;;;;;;4190643;28;20404;-85
2023/06/30 10:33:56;;;;;;;;;;;21.00;49.20;;;;;;4173572;28;20410;-85
2023/06/30 10:35:58;;;;;;;;;;;21.10;48.30;;;;;;4193942;28;20294;-84
2023/06/30 10:37:59;;;;;;;;;;;21.10;48.20;;;;;;4195965;28;19918;-85
2023/06/30 10:39:59;;;;;;;;;;;21.10;47.60;;;;;;4172327;28;19920;-85
2023/06/30 10:42:00;;;;;;;;;;;21.20;48.40;;;;;;4181970;28;20268;-84
2023/06/30 10:44:05;;;;;;;;;;;21.20;48.40;;;;;;4193197;28;19913;-84
2023/06/30 10:46:06;;;;;;;;;;;21.30;47.30;;;;;;4173990;28;20364;-82
2023/06/30 10:48:13;;;;;;;;;;;21.30;47.90;;;;;;4175069;28;19909;-85
2023/06/30 10:50:14;;;;;;;;;;;21.40;47.30;;;;;;4178774;28;19919;-85
2023/06/30 10:52:25;;;;;;;;;;;21.40;45.40;;;;;;4159624;28;19992;-85
2023/06/30 10:54:25;;;;;;;;;;;21.40;46.70;;;;;;4177561;28;19909;-85
2023/06/30 10:56:27;;;;;;;;;;;21.50;47.70;;;;;;4195580;28;20007;-84
2023/06/30 10:58:28;;;;;;;;;;;21.40;45.80;;;;;;4196790;28;19905;-85
2023/06/30 11:00:31;;;;;;;;;;;21.50;47.00;;;;;;4165171;28;19936;-85
2023/06/30 11:02:33;;;;;;;;;;;21.50;46.30;;;;;;4194645;28;19912;-85
2023/06/30 11:04:37;;;;;;;;;;;21.40;46.70;;;;;;4193030;28;19956;-84
2023/06/30 11:06:37;;;;;;;;;;;21.50;46.50;;;;;;4183009;28;20119;-84
2023/06/30 11:08:38;;;;;;;;;;;21.50;46.10;;;;;;4195266;28;19920;-84
2023/06/30 11:10:46;;;;;;;;;;;21.40;45.00;;;;;;4195861;28;19971;-84
2023/06/30 11:12:51;;;;;;;;;;;21.40;45.60;;;;;;4180031;28;19967;-84
2023/06/30 11:14:58;;;;;;;;;;;21.40;46.40;;;;;;4199408;28;19924;-84
2023/06/30 11:17:06;;;;;;;;;;;21.50;46.60;;;;;;4192168;28;21237;-84
2023/06/30 11:19:06;;;;;;;;;;;21.50;46.30;;;;;;4163819;28;20016;-84
2023/06/30 11:21:07;;;;;;;;;;;21.50;46.70;;;;;;4175868;28;20175;-85
2023/06/30 11:23:17;;;;;;;;;;;21.60;46.70;;;;;;4170026;28;20288;-85
2023/06/30 11:25:35;;;;;;;;;;;21.50;46.20;;;;;;4177784;28;19909;-84
2023/06/30 11:27:56;;;;;;;;;;;21.60;45.90;;;;;;4196209;28;20172;-83
2023/06/30 11:30:18;;;;;;;;;;;21.60;46.00;;;;;;4196149;28;19941;-85
2023/06/30 11:32:39;;;;;;;;;;;21.60;46.00;;;;;;4179124;28;19963;-84
2023/06/30 11:38:00;;;;;;;;;;;21.60;45.80;;;;;;4128316;28;20013;-85
2023/06/30 11:40:23;;;;;;;;;;;21.60;46.60;;;;;;4125788;28;19952;-84
2023/06/30 11:42:44;;;;;;;;;;;21.70;46.80;;;;;;4158942;28;19915;-84
2023/06/30 11:45:05;;;;;;;;;;;21.70;46.60;;;;;;4180778;28;19912;-84
2023/06/30 11:47:25;;;;;;;;;;;21.80;45.80;;;;;;4184591;28;19912;-85
2023/06/30 11:49:46;;;;;;;;;;;21.80;45.80;;;;;;4209874;28;19930;-86
2023/06/30 11:52:07;;;;;;;;;;;21.80;45.50;;;;;;4211363;28;19913;-86
2023/06/30 11:54:31;;;;;;;;;;;21.80;45.40;;;;;;4199288;28;19924;-84
2023/06/30 11:56:33;;;;;;;;;;;21.70;45.50;;;;;;4194013;28;19906;-86
2023/06/30 11:58:34;;;;;;;;;;;21.70;45.70;;;;;;4197614;28;19912;-85
2023/06/30 12:00:34;;;;;;;;;;;21.70;45.40;;;;;;4164252;28;19920;-85
2023/06/30 12:02:35;;;;;;;;;;;21.70;45.00;;;;;;4178283;28;19908;-84
2023/06/30 12:04:36;;;;;;;;;;;21.70;45.60;;;;;;4195705;28;19951;-84
2023/06/30 12:06:37;;;;;;;;;;;21.60;45.60;;;;;;4169792;28;19980;-85
2023/06/30 12:08:38;;;;;;;;;;;21.60;45.90;;;;;;4178350;28;19916;-84
2023/06/30 12:10:39;;;;;;;;;;;21.60;46.00;;;;;;4176374;28;19909;-85
2023/06/30 12:12:41;;;;;;;;;;;21.60;45.70;;;;;;4163902;28;19939;-86
2023/06/30 12:14:52;;;;;;;;;;;21.60;45.00;;;;;;4189086;28;20317;-85
2023/06/30 12:16:53;;;;;;;;;;;21.60;45.30;;;;;;4174281;28;19916;-85
2023/06/30 12:18:54;;;;;;;;;;;21.60;45.30;;;;;;4210457;22;20072;-86
2023/06/30 12:20:56;;;;;;;;;;;21.60;45.20;;;;;;4160829;28;19929;-84
2023/06/30 12:22:57;;;;;;;;;;;21.60;45.30;;;;;;4177418;28;20395;-84
2023/06/30 12:25:00;;;;;;;;;;;21.60;45.00;;;;;;4188379;28;19920;-84